sensor_id;sensor_type;location;lat;lon;timestamp;temperature;humidity
42913;DHT22;50720;54.324;18.558;2022-11-04T00:01:04;3.60;99.90
42913;DHT22;50720;54.324;18.558;2022-11-04T00:03:34;3.60;99.90
42913;DHT22;50720;54.324;18.558;2022-11-04T00:06:04;3.60;99.90
42913;DHT22;50720;54.324;18.558;2022-11-04T00:08:34;3.70;99.90
42913;DHT22;50720;54.324;18.558;2022-11-04T00:11:04;3.70;99.90
42913;DHT22;50720;54.324;18.558;2022-11-04T00:13:51;3.70;99.90
42913;DHT22;50720;54.324;18.558;2022-11-04T00:16:22;3.70;99.90
42913;DHT22;50720;54.324;18.558;2022-11-04T00:19:09;3.80;99.90
42913;DHT22;50720;54.324;18.558;2022-11-04T00:21:39;3.80;99.90
42913;DHT22;50720;54.324;18.558;2022-11-04T00:24:26;3.80;99.90
42913;DHT22;50720;54.324;18.558;2022-11-04T00:27:13;3.80;99.90
42913;DHT22;50720;54.324;18.558;2022-11-04T00:30:00;3.90;99.90
42913;DHT22;50720;54.324;18.558;2022-11-04T00:32:32;3.90;99.90
42913;DHT22;50720;54.324;18.558;2022-11-04T00:35:20;3.90;99.90
42913;DHT22;50720;54.324;18.558;2022-11-04T00:37:49;3.90;99.90
42913;DHT22;50720;54.324;18.558;2022-11-04T00:40:19;3.90;99.90
42913;DHT22;50720;54.324;18.558;2022-11-04T00:42:49;3.90;99.90
42913;DHT22;50720;54.324;18.558;2022-11-04T00:45:19;3.90;99.90
42913;DHT22;50720;54.324;18.558;2022-11-04T00:47:50;4.00;99.90
42913;DHT22;50720;54.324;18.558;2022-11-04T00:50:19;4.00;99.90
42913;DHT22;50720;54.324;18.558;2022-11-04T00:52:49;4.00;99.90
42913;DHT22;50720;54.324;18.558;2022-11-04T00:55:18;4.00;99.90
42913;DHT22;50720;54.324;18.558;2022-11-04T00:57:49;4.10;99.90
42913;DHT22;50720;54.324;18.558;2022-11-04T01:00:18;4.10;99.90
42913;DHT22;50720;54.324;18.558;2022-11-04T01:02:50;4.20;99.90
42913;DHT22;50720;54.324;18.558;2022-11-04T01:05:19;4.20;99.90
42913;DHT22;50720;54.324;18.558;2022-11-04T01:07:49;4.20;99.90
42913;DHT22;50720;54.324;18.558;2022-11-04T01:10:19;4.30;99.90
42913;DHT22;50720;54.324;18.558;2022-11-04T01:12:51;4.30;99.90
42913;DHT22;50720;54.324;18.558;2022-11-04T01:15:21;4.30;99.90
42913;DHT22;50720;54.324;18.558;2022-11-04T01:17:53;4.30;99.90
42913;DHT22;50720;54.324;18.558;2022-11-04T01:20:23;4.30;99.90
42913;DHT22;50720;54.324;18.558;2022-11-04T01:22:53;4.40;99.90
42913;DHT22;50720;54.324;18.558;2022-11-04T01:25:23;4.40;99.90
42913;DHT22;50720;54.324;18.558;2022-11-04T01:27:54;4.50;99.90
42913;DHT22;50720;54.324;18.558;2022-11-04T01:30:24;4.50;99.90
42913;DHT22;50720;54.324;18.558;2022-11-04T01:32:56;4.60;99.90
42913;DHT22;50720;54.324;18.558;2022-11-04T01:35:25;4.60;99.90
42913;DHT22;50720;54.324;18.558;2022-11-04T01:37:56;4.60;99.90
42913;DHT22;50720;54.324;18.558;2022-11-04T01:40:26;4.70;99.90
42913;DHT22;50720;54.324;18.558;2022-11-04T01:42:56;4.70;99.90
42913;DHT22;50720;54.324;18.558;2022-11-04T01:45:26;4.70;99.90
42913;DHT22;50720;54.324;18.558;2022-11-04T01:48:01;4.80;99.90
42913;DHT22;50720;54.324;18.558;2022-11-04T01:50:34;4.80;99.90
42913;DHT22;50720;54.324;18.558;2022-11-04T01:53:06;4.70;99.90
42913;DHT22;50720;54.324;18.558;2022-11-04T01:55:40;4.80;99.90
42913;DHT22;50720;54.324;18.558;2022-11-04T01:58:15;4.80;99.90
42913;DHT22;50720;54.324;18.558;2022-11-04T02:00:46;4.80;99.90
42913;DHT22;50720;54.324;18.558;2022-11-04T02:03:20;4.80;99.90
42913;DHT22;50720;54.324;18.558;2022-11-04T02:05:52;4.80;99.90
42913;DHT22;50720;54.324;18.558;2022-11-04T02:08:22;4.80;99.90
42913;DHT22;50720;54.324;18.558;2022-11-04T02:10:56;4.80;99.90
42913;DHT22;50720;54.324;18.558;2022-11-04T02:13:28;4.80;99.90
42913;DHT22;50720;54.324;18.558;2022-11-04T02:16:05;4.80;99.90
42913;DHT22;50720;54.324;18.558;2022-11-04T02:18:55;4.90;99.90
42913;DHT22;50720;54.324;18.558;2022-11-04T02:22:05;4.90;99.90
42913;DHT22;50720;54.324;18.558;2022-11-04T02:24:56;4.90;99.90
42913;DHT22;50720;54.324;18.558;2022-11-04T02:27:47;4.90;99.90
42913;DHT22;50720;54.324;18.558;2022-11-04T02:30:21;4.90;99.90
42913;DHT22;50720;54.324;18.558;2022-11-04T02:33:10;5.00;99.90
42913;DHT22;50720;54.324;18.558;2022-11-04T02:35:49;5.00;99.90
42913;DHT22;50720;54.324;18.558;2022-11-04T02:38:28;5.00;99.90
42913;DHT22;50720;54.324;18.558;2022-11-04T02:41:06;5.00;99.90
42913;DHT22;50720;54.324;18.558;2022-11-04T02:43:47;5.10;99.90
42913;DHT22;50720;54.324;18.558;2022-11-04T02:46:25;5.10;99.90
42913;DHT22;50720;54.324;18.558;2022-11-04T02:49:05;5.10;99.90
42913;DHT22;50720;54.324;18.558;2022-11-04T02:51:41;5.10;99.90
42913;DHT22;50720;54.324;18.558;2022-11-04T02:54:16;5.10;99.90
42913;DHT22;50720;54.324;18.558;2022-11-04T02:56:50;5.20;99.90
42913;DHT22;50720;54.324;18.558;2022-11-04T02:59:27;5.20;99.90
42913;DHT22;50720;54.324;18.558;2022-11-04T03:02:03;5.20;99.90
42913;DHT22;50720;54.324;18.558;2022-11-04T03:04:37;5.30;99.90
42913;DHT22;50720;54.324;18.558;2022-11-04T03:07:11;5.30;99.90
42913;DHT22;50720;54.324;18.558;2022-11-04T03:09:47;5.30;99.90
42913;DHT22;50720;54.324;18.558;2022-11-04T03:12:23;5.40;99.90
42913;DHT22;50720;54.324;18.558;2022-11-04T03:14:57;5.40;99.90
42913;DHT22;50720;54.324;18.558;2022-11-04T03:17:33;5.40;99.90
42913;DHT22;50720;54.324;18.558;2022-11-04T03:20:07;5.40;99.90
42913;DHT22;50720;54.324;18.558;2022-11-04T03:22:38;5.40;99.90
42913;DHT22;50720;54.324;18.558;2022-11-04T03:25:09;5.40;99.90
42913;DHT22;50720;54.324;18.558;2022-11-04T03:27:44;5.50;99.90
42913;DHT22;50720;54.324;18.558;2022-11-04T03:30:16;5.50;99.90
42913;DHT22;50720;54.324;18.558;2022-11-04T03:32:55;5.50;99.90
42913;DHT22;50720;54.324;18.558;2022-11-04T03:35:26;5.50;99.90
42913;DHT22;50720;54.324;18.558;2022-11-04T03:37:57;5.50;99.90
42913;DHT22;50720;54.324;18.558;2022-11-04T03:40:27;5.50;99.90
42913;DHT22;50720;54.324;18.558;2022-11-04T03:43:01;5.50;99.90
42913;DHT22;50720;54.324;18.558;2022-11-04T03:45:32;5.60;99.90
42913;DHT22;50720;54.324;18.558;2022-11-04T03:48:04;5.50;99.90
42913;DHT22;50720;54.324;18.558;2022-11-04T03:50:39;5.60;99.90
42913;DHT22;50720;54.324;18.558;2022-11-04T03:53:11;5.60;99.90
42913;DHT22;50720;54.324;18.558;2022-11-04T03:55:48;5.60;99.90
42913;DHT22;50720;54.324;18.558;2022-11-04T03:58:28;5.60;99.90
42913;DHT22;50720;54.324;18.558;2022-11-04T04:01:06;5.60;99.90
42913;DHT22;50720;54.324;18.558;2022-11-04T04:03:43;5.70;99.90
42913;DHT22;50720;54.324;18.558;2022-11-04T04:06:15;5.60;99.90
42913;DHT22;50720;54.324;18.558;2022-11-04T04:08:50;5.70;99.90
42913;DHT22;50720;54.324;18.558;2022-11-04T04:11:28;5.70;99.90
42913;DHT22;50720;54.324;18.558;2022-11-04T04:14:02;5.70;99.90
42913;DHT22;50720;54.324;18.558;2022-11-04T04:16:36;5.70;99.90
42913;DHT22;50720;54.324;18.558;2022-11-04T04:19:11;5.70;99.90
42913;DHT22;50720;54.324;18.558;2022-11-04T04:21:44;5.70;99.90
42913;DHT22;50720;54.324;18.558;2022-11-04T04:24:17;5.70;99.90
42913;DHT22;50720;54.324;18.558;2022-11-04T04:27:05;5.70;99.90
42913;DHT22;50720;54.324;18.558;2022-11-04T04:29:53;5.70;99.90
42913;DHT22;50720;54.324;18.558;2022-11-04T04:32:24;5.80;99.90
42913;DHT22;50720;54.324;18.558;2022-11-04T04:34:56;5.80;99.90
42913;DHT22;50720;54.324;18.558;2022-11-04T04:37:40;5.80;99.90
42913;DHT22;50720;54.324;18.558;2022-11-04T04:40:14;5.90;99.90
42913;DHT22;50720;54.324;18.558;2022-11-04T04:43:02;5.90;99.90
42913;DHT22;50720;54.324;18.558;2022-11-04T04:45:51;5.90;99.90
42913;DHT22;50720;54.324;18.558;2022-11-04T04:48:22;5.90;99.90
42913;DHT22;50720;54.324;18.558;2022-11-04T04:50:53;6.00;99.90
42913;DHT22;50720;54.324;18.558;2022-11-04T04:53:28;6.00;99.90
42913;DHT22;50720;54.324;18.558;2022-11-04T04:55:58;6.10;99.90
42913;DHT22;50720;54.324;18.558;2022-11-04T04:58:27;6.10;99.90
42913;DHT22;50720;54.324;18.558;2022-11-04T05:00:57;6.20;99.90
42913;DHT22;50720;54.324;18.558;2022-11-04T05:03:26;6.20;99.90
42913;DHT22;50720;54.324;18.558;2022-11-04T05:06:00;6.20;99.90
42913;DHT22;50720;54.324;18.558;2022-11-04T05:08:29;6.20;99.90
42913;DHT22;50720;54.324;18.558;2022-11-04T05:10:59;6.30;99.90
42913;DHT22;50720;54.324;18.558;2022-11-04T05:13:28;6.30;99.90
42913;DHT22;50720;54.324;18.558;2022-11-04T05:16:04;6.30;99.90
42913;DHT22;50720;54.324;18.558;2022-11-04T05:18:33;6.30;99.90
42913;DHT22;50720;54.324;18.558;2022-11-04T05:21:07;6.40;99.90
42913;DHT22;50720;54.324;18.558;2022-11-04T05:23:37;6.40;99.90
42913;DHT22;50720;54.324;18.558;2022-11-04T05:26:07;6.40;99.90
42913;DHT22;50720;54.324;18.558;2022-11-04T05:28:37;6.50;99.90
42913;DHT22;50720;54.324;18.558;2022-11-04T05:31:06;6.40;99.90
42913;DHT22;50720;54.324;18.558;2022-11-04T05:33:36;6.50;99.90
42913;DHT22;50720;54.324;18.558;2022-11-04T05:36:09;6.40;99.90
42913;DHT22;50720;54.324;18.558;2022-11-04T05:38:39;6.40;99.90
42913;DHT22;50720;54.324;18.558;2022-11-04T05:41:10;6.50;99.90
42913;DHT22;50720;54.324;18.558;2022-11-04T05:43:52;6.50;99.90
42913;DHT22;50720;54.324;18.558;2022-11-04T05:46:23;6.50;99.90
42913;DHT22;50720;54.324;18.558;2022-11-04T05:48:52;6.50;99.90
42913;DHT22;50720;54.324;18.558;2022-11-04T05:51:26;6.50;99.90
42913;DHT22;50720;54.324;18.558;2022-11-04T05:53:56;6.50;99.90
42913;DHT22;50720;54.324;18.558;2022-11-04T05:56:26;6.50;99.90
42913;DHT22;50720;54.324;18.558;2022-11-04T05:58:55;6.50;99.90
42913;DHT22;50720;54.324;18.558;2022-11-04T06:01:30;6.50;99.90
42913;DHT22;50720;54.324;18.558;2022-11-04T06:04:01;6.50;99.90
42913;DHT22;50720;54.324;18.558;2022-11-04T06:06:34;6.50;99.90
42913;DHT22;50720;54.324;18.558;2022-11-04T06:09:05;6.50;99.90
42913;DHT22;50720;54.324;18.558;2022-11-04T06:11:36;6.40;99.90
42913;DHT22;50720;54.324;18.558;2022-11-04T06:14:05;6.40;99.90
42913;DHT22;50720;54.324;18.558;2022-11-04T06:16:35;6.40;99.90
42913;DHT22;50720;54.324;18.558;2022-11-04T06:19:04;6.40;99.90
42913;DHT22;50720;54.324;18.558;2022-11-04T06:21:41;6.40;99.90
42913;DHT22;50720;54.324;18.558;2022-11-04T06:24:11;6.40;99.90
42913;DHT22;50720;54.324;18.558;2022-11-04T06:26:41;6.40;99.90
42913;DHT22;50720;54.324;18.558;2022-11-04T06:29:11;6.40;99.90
42913;DHT22;50720;54.324;18.558;2022-11-04T06:31:40;6.50;99.90
42913;DHT22;50720;54.324;18.558;2022-11-04T06:34:10;6.40;99.90
42913;DHT22;50720;54.324;18.558;2022-11-04T06:36:41;6.50;99.90
42913;DHT22;50720;54.324;18.558;2022-11-04T06:39:10;6.50;99.90
42913;DHT22;50720;54.324;18.558;2022-11-04T06:41:41;6.50;99.90
42913;DHT22;50720;54.324;18.558;2022-11-04T06:44:14;6.50;99.90
42913;DHT22;50720;54.324;18.558;2022-11-04T06:46:44;6.60;99.90
42913;DHT22;50720;54.324;18.558;2022-11-04T06:49:15;6.60;99.90
42913;DHT22;50720;54.324;18.558;2022-11-04T06:51:47;6.60;99.90
42913;DHT22;50720;54.324;18.558;2022-11-04T06:54:17;6.60;99.90
42913;DHT22;50720;54.324;18.558;2022-11-04T06:56:48;6.60;99.90
42913;DHT22;50720;54.324;18.558;2022-11-04T06:59:19;6.70;99.90
42913;DHT22;50720;54.324;18.558;2022-11-04T07:01:51;6.70;99.90
42913;DHT22;50720;54.324;18.558;2022-11-04T07:04:20;6.70;99.90
42913;DHT22;50720;54.324;18.558;2022-11-04T07:06:51;6.80;99.90
42913;DHT22;50720;54.324;18.558;2022-11-04T07:09:21;6.90;99.90
42913;DHT22;50720;54.324;18.558;2022-11-04T07:11:51;7.00;99.90
42913;DHT22;50720;54.324;18.558;2022-11-04T07:14:20;7.00;99.90
42913;DHT22;50720;54.324;18.558;2022-11-04T07:16:49;7.00;99.90
42913;DHT22;50720;54.324;18.558;2022-11-04T07:19:19;7.00;99.90
42913;DHT22;50720;54.324;18.558;2022-11-04T07:21:51;7.10;99.90
42913;DHT22;50720;54.324;18.558;2022-11-04T07:24:20;7.10;99.90
42913;DHT22;50720;54.324;18.558;2022-11-04T07:26:52;7.10;99.90
42913;DHT22;50720;54.324;18.558;2022-11-04T07:29:22;7.20;99.90
42913;DHT22;50720;54.324;18.558;2022-11-04T07:31:52;7.20;99.90
42913;DHT22;50720;54.324;18.558;2022-11-04T07:34:22;7.30;99.90
42913;DHT22;50720;54.324;18.558;2022-11-04T07:36:53;7.40;99.90
42913;DHT22;50720;54.324;18.558;2022-11-04T07:39:22;7.40;99.90
42913;DHT22;50720;54.324;18.558;2022-11-04T07:41:53;7.40;99.90
42913;DHT22;50720;54.324;18.558;2022-11-04T07:44:26;7.40;99.90
42913;DHT22;50720;54.324;18.558;2022-11-04T07:46:56;7.40;99.90
42913;DHT22;50720;54.324;18.558;2022-11-04T07:49:25;7.40;99.90
42913;DHT22;50720;54.324;18.558;2022-11-04T07:51:57;7.50;99.90
42913;DHT22;50720;54.324;18.558;2022-11-04T07:54:27;7.50;99.90
42913;DHT22;50720;54.324;18.558;2022-11-04T07:56:57;7.50;99.90
42913;DHT22;50720;54.324;18.558;2022-11-04T07:59:26;7.60;99.90
42913;DHT22;50720;54.324;18.558;2022-11-04T08:01:57;7.60;99.90
42913;DHT22;50720;54.324;18.558;2022-11-04T08:04:27;7.60;99.90
42913;DHT22;50720;54.324;18.558;2022-11-04T08:06:58;7.70;99.90
42913;DHT22;50720;54.324;18.558;2022-11-04T08:09:28;7.70;99.90
42913;DHT22;50720;54.324;18.558;2022-11-04T08:11:58;7.80;99.90
42913;DHT22;50720;54.324;18.558;2022-11-04T08:14:27;7.90;99.90
42913;DHT22;50720;54.324;18.558;2022-11-04T08:16:57;7.80;99.90
42913;DHT22;50720;54.324;18.558;2022-11-04T08:19:26;7.90;99.90
42913;DHT22;50720;54.324;18.558;2022-11-04T08:21:58;8.00;99.90
42913;DHT22;50720;54.324;18.558;2022-11-04T08:24:27;8.10;99.90
42913;DHT22;50720;54.324;18.558;2022-11-04T08:26:57;8.10;99.90
42913;DHT22;50720;54.324;18.558;2022-11-04T08:29:27;8.20;99.90
42913;DHT22;50720;54.324;18.558;2022-11-04T08:31:56;8.30;99.90
42913;DHT22;50720;54.324;18.558;2022-11-04T08:34:26;8.40;99.90
42913;DHT22;50720;54.324;18.558;2022-11-04T08:36:55;8.60;99.90
42913;DHT22;50720;54.324;18.558;2022-11-04T08:39:28;8.70;99.90
42913;DHT22;50720;54.324;18.558;2022-11-04T08:41:58;8.70;99.90
42913;DHT22;50720;54.324;18.558;2022-11-04T08:44:27;8.80;99.90
42913;DHT22;50720;54.324;18.558;2022-11-04T08:46:58;8.90;99.90
42913;DHT22;50720;54.324;18.558;2022-11-04T08:49:27;8.90;99.90
42913;DHT22;50720;54.324;18.558;2022-11-04T08:51:57;9.00;99.90
42913;DHT22;50720;54.324;18.558;2022-11-04T08:54:30;9.10;99.90
42913;DHT22;50720;54.324;18.558;2022-11-04T08:56:59;9.20;99.90
42913;DHT22;50720;54.324;18.558;2022-11-04T08:59:29;9.30;99.90
42913;DHT22;50720;54.324;18.558;2022-11-04T09:01:59;9.40;99.90
42913;DHT22;50720;54.324;18.558;2022-11-04T09:04:29;9.40;99.90
42913;DHT22;50720;54.324;18.558;2022-11-04T09:07:02;9.40;99.90
42913;DHT22;50720;54.324;18.558;2022-11-04T09:09:36;9.40;99.90
42913;DHT22;50720;54.324;18.558;2022-11-04T09:12:09;9.50;99.90
42913;DHT22;50720;54.324;18.558;2022-11-04T09:14:38;9.60;99.90
42913;DHT22;50720;54.324;18.558;2022-11-04T09:17:08;9.70;99.90
42913;DHT22;50720;54.324;18.558;2022-11-04T09:19:37;9.80;99.90
42913;DHT22;50720;54.324;18.558;2022-11-04T09:22:07;9.80;99.90
42913;DHT22;50720;54.324;18.558;2022-11-04T09:24:38;9.90;99.90
42913;DHT22;50720;54.324;18.558;2022-11-04T09:27:08;9.90;99.90
42913;DHT22;50720;54.324;18.558;2022-11-04T09:29:38;9.90;99.90
42913;DHT22;50720;54.324;18.558;2022-11-04T09:32:08;10.00;99.90
42913;DHT22;50720;54.324;18.558;2022-11-04T09:34:38;10.00;99.90
42913;DHT22;50720;54.324;18.558;2022-11-04T09:37:08;10.00;99.90
42913;DHT22;50720;54.324;18.558;2022-11-04T09:39:39;10.10;99.90
42913;DHT22;50720;54.324;18.558;2022-11-04T09:42:34;10.20;99.90
42913;DHT22;50720;54.324;18.558;2022-11-04T09:45:11;10.30;99.90
42913;DHT22;50720;54.324;18.558;2022-11-04T09:47:51;10.40;99.90
42913;DHT22;50720;54.324;18.558;2022-11-04T09:50:23;10.30;99.90
42913;DHT22;50720;54.324;18.558;2022-11-04T09:52:57;10.40;99.90
42913;DHT22;50720;54.324;18.558;2022-11-04T09:55:37;10.40;99.90
42913;DHT22;50720;54.324;18.558;2022-11-04T09:58:11;10.50;99.90
42913;DHT22;50720;54.324;18.558;2022-11-04T10:00:44;10.40;99.90
42913;DHT22;50720;54.324;18.558;2022-11-04T10:03:28;10.40;99.90
42913;DHT22;50720;54.324;18.558;2022-11-04T10:06:08;10.40;99.90
42913;DHT22;50720;54.324;18.558;2022-11-04T10:08:58;10.40;99.90
42913;DHT22;50720;54.324;18.558;2022-11-04T10:11:35;10.50;99.90
42913;DHT22;50720;54.324;18.558;2022-11-04T10:14:24;10.50;99.90
42913;DHT22;50720;54.324;18.558;2022-11-04T10:17:11;10.60;99.90
42913;DHT22;50720;54.324;18.558;2022-11-04T10:19:55;10.60;99.90
42913;DHT22;50720;54.324;18.558;2022-11-04T10:22:32;10.50;99.90
42913;DHT22;50720;54.324;18.558;2022-11-04T10:25:09;10.50;99.90
42913;DHT22;50720;54.324;18.558;2022-11-04T10:27:43;10.60;99.90
42913;DHT22;50720;54.324;18.558;2022-11-04T10:30:16;10.90;99.90
42913;DHT22;50720;54.324;18.558;2022-11-04T10:32:54;11.00;99.90
42913;DHT22;50720;54.324;18.558;2022-11-04T10:35:30;11.20;99.90
42913;DHT22;50720;54.324;18.558;2022-11-04T10:38:14;11.50;99.90
42913;DHT22;50720;54.324;18.558;2022-11-04T10:40:47;11.80;99.90
42913;DHT22;50720;54.324;18.558;2022-11-04T10:43:26;12.00;99.90
42913;DHT22;50720;54.324;18.558;2022-11-04T10:46:08;12.40;99.90
42913;DHT22;50720;54.324;18.558;2022-11-04T10:48:42;12.10;99.90
42913;DHT22;50720;54.324;18.558;2022-11-04T10:51:17;11.80;99.90
42913;DHT22;50720;54.324;18.558;2022-11-04T10:53:52;11.80;99.90
42913;DHT22;50720;54.324;18.558;2022-11-04T10:56:32;11.80;99.90
42913;DHT22;50720;54.324;18.558;2022-11-04T10:59:18;11.60;99.90
42913;DHT22;50720;54.324;18.558;2022-11-04T11:01:51;11.40;99.90
42913;DHT22;50720;54.324;18.558;2022-11-04T11:04:27;11.30;99.90
42913;DHT22;50720;54.324;18.558;2022-11-04T11:06:58;11.10;99.90
42913;DHT22;50720;54.324;18.558;2022-11-04T11:09:29;11.20;99.90
42913;DHT22;50720;54.324;18.558;2022-11-04T11:12:02;11.30;99.90
42913;DHT22;50720;54.324;18.558;2022-11-04T11:14:55;11.70;99.90
42913;DHT22;50720;54.324;18.558;2022-11-04T11:17:35;11.70;99.90
42913;DHT22;50720;54.324;18.558;2022-11-04T11:20:18;11.60;99.90
42913;DHT22;50720;54.324;18.558;2022-11-04T11:22:49;11.50;99.90
42913;DHT22;50720;54.324;18.558;2022-11-04T11:25:23;11.90;99.90
42913;DHT22;50720;54.324;18.558;2022-11-04T11:27:56;12.10;99.90
42913;DHT22;50720;54.324;18.558;2022-11-04T11:30:30;11.90;99.90
42913;DHT22;50720;54.324;18.558;2022-11-04T11:33:04;12.00;99.90
42913;DHT22;50720;54.324;18.558;2022-11-04T11:35:38;12.40;99.90
42913;DHT22;50720;54.324;18.558;2022-11-04T11:38:16;12.80;99.90
42913;DHT22;50720;54.324;18.558;2022-11-04T11:40:47;13.00;99.90
42913;DHT22;50720;54.324;18.558;2022-11-04T11:43:42;12.90;99.90
42913;DHT22;50720;54.324;18.558;2022-11-04T11:46:20;12.60;99.90
42913;DHT22;50720;54.324;18.558;2022-11-04T11:48:52;12.30;99.90
42913;DHT22;50720;54.324;18.558;2022-11-04T11:51:30;12.00;99.90
42913;DHT22;50720;54.324;18.558;2022-11-04T11:54:15;11.80;99.90
42913;DHT22;50720;54.324;18.558;2022-11-04T11:56:47;11.70;99.90
42913;DHT22;50720;54.324;18.558;2022-11-04T11:59:44;11.70;99.90
42913;DHT22;50720;54.324;18.558;2022-11-04T12:02:42;12.00;99.90
42913;DHT22;50720;54.324;18.558;2022-11-04T12:05:15;12.00;99.90
42913;DHT22;50720;54.324;18.558;2022-11-04T12:08:21;11.90;99.90
42913;DHT22;50720;54.324;18.558;2022-11-04T12:11:19;11.80;99.90
42913;DHT22;50720;54.324;18.558;2022-11-04T12:13:53;12.00;99.90
42913;DHT22;50720;54.324;18.558;2022-11-04T12:16:32;11.80;99.90
42913;DHT22;50720;54.324;18.558;2022-11-04T12:19:30;11.80;99.90
42913;DHT22;50720;54.324;18.558;2022-11-04T12:22:06;12.00;99.90
42913;DHT22;50720;54.324;18.558;2022-11-04T12:24:46;11.90;99.90
42913;DHT22;50720;54.324;18.558;2022-11-04T12:27:30;11.70;99.90
42913;DHT22;50720;54.324;18.558;2022-11-04T12:30:07;11.70;99.90
42913;DHT22;50720;54.324;18.558;2022-11-04T12:32:47;11.50;99.90
42913;DHT22;50720;54.324;18.558;2022-11-04T12:35:33;11.40;99.90
42913;DHT22;50720;54.324;18.558;2022-11-04T12:38:26;11.40;99.90
42913;DHT22;50720;54.324;18.558;2022-11-04T12:41:07;11.40;99.90
42913;DHT22;50720;54.324;18.558;2022-11-04T12:44:06;11.30;99.90
42913;DHT22;50720;54.324;18.558;2022-11-04T12:46:41;11.20;99.90
42913;DHT22;50720;54.324;18.558;2022-11-04T12:49:43;11.10;99.90
42913;DHT22;50720;54.324;18.558;2022-11-04T12:52:30;11.10;99.90
42913;DHT22;50720;54.324;18.558;2022-11-04T12:55:22;11.10;99.90
42913;DHT22;50720;54.324;18.558;2022-11-04T12:58:03;11.00;99.90
42913;DHT22;50720;54.324;18.558;2022-11-04T13:00:40;10.80;99.90
42913;DHT22;50720;54.324;18.558;2022-11-04T13:03:15;10.80;99.90
42913;DHT22;50720;54.324;18.558;2022-11-04T13:05:52;11.00;99.90
42913;DHT22;50720;54.324;18.558;2022-11-04T13:08:27;10.90;99.90
42913;DHT22;50720;54.324;18.558;2022-11-04T13:11:00;10.80;99.90
42913;DHT22;50720;54.324;18.558;2022-11-04T13:13:33;10.80;99.90
42913;DHT22;50720;54.324;18.558;2022-11-04T13:16:08;10.80;99.90
42913;DHT22;50720;54.324;18.558;2022-11-04T13:18:39;10.90;99.90
42913;DHT22;50720;54.324;18.558;2022-11-04T13:21:14;11.10;99.90
42913;DHT22;50720;54.324;18.558;2022-11-04T13:23:51;10.90;99.90
42913;DHT22;50720;54.324;18.558;2022-11-04T13:26:24;10.90;99.90
42913;DHT22;50720;54.324;18.558;2022-11-04T13:28:57;10.70;99.90
42913;DHT22;50720;54.324;18.558;2022-11-04T13:31:45;10.80;99.90
42913;DHT22;50720;54.324;18.558;2022-11-04T13:34:27;10.70;99.90
42913;DHT22;50720;54.324;18.558;2022-11-04T13:37:10;10.60;99.90
42913;DHT22;50720;54.324;18.558;2022-11-04T13:39:45;10.60;99.90
42913;DHT22;50720;54.324;18.558;2022-11-04T13:42:43;10.70;99.90
42913;DHT22;50720;54.324;18.558;2022-11-04T13:45:18;10.70;99.90
42913;DHT22;50720;54.324;18.558;2022-11-04T13:47:51;10.70;99.90
42913;DHT22;50720;54.324;18.558;2022-11-04T13:50:33;10.70;99.90
42913;DHT22;50720;54.324;18.558;2022-11-04T13:53:05;10.80;99.90
42913;DHT22;50720;54.324;18.558;2022-11-04T13:55:47;10.70;99.90
42913;DHT22;50720;54.324;18.558;2022-11-04T13:58:22;10.70;99.90
42913;DHT22;50720;54.324;18.558;2022-11-04T14:01:24;10.70;99.90
42913;DHT22;50720;54.324;18.558;2022-11-04T14:04:02;10.70;99.90
42913;DHT22;50720;54.324;18.558;2022-11-04T14:06:49;10.60;99.90
42913;DHT22;50720;54.324;18.558;2022-11-04T14:09:31;10.60;99.90
42913;DHT22;50720;54.324;18.558;2022-11-04T14:12:33;10.50;99.90
42913;DHT22;50720;54.324;18.558;2022-11-04T14:15:21;10.40;99.90
42913;DHT22;50720;54.324;18.558;2022-11-04T14:18:26;10.40;99.90
42913;DHT22;50720;54.324;18.558;2022-11-04T14:21:06;10.30;99.90
42913;DHT22;50720;54.324;18.558;2022-11-04T14:23:36;10.30;99.90
42913;DHT22;50720;54.324;18.558;2022-11-04T14:26:10;10.20;99.90
42913;DHT22;50720;54.324;18.558;2022-11-04T14:28:43;10.10;99.90
42913;DHT22;50720;54.324;18.558;2022-11-04T14:31:14;10.10;99.90
42913;DHT22;50720;54.324;18.558;2022-11-04T14:34:02;10.00;99.90
42913;DHT22;50720;54.324;18.558;2022-11-04T14:36:34;10.00;99.90
42913;DHT22;50720;54.324;18.558;2022-11-04T14:39:21;9.90;99.90
42913;DHT22;50720;54.324;18.558;2022-11-04T14:41:56;9.90;99.90
42913;DHT22;50720;54.324;18.558;2022-11-04T14:44:31;9.80;99.90
42913;DHT22;50720;54.324;18.558;2022-11-04T14:47:12;9.80;99.90
42913;DHT22;50720;54.324;18.558;2022-11-04T14:49:45;9.80;99.90
42913;DHT22;50720;54.324;18.558;2022-11-04T14:52:21;9.70;99.90
42913;DHT22;50720;54.324;18.558;2022-11-04T14:54:55;9.70;99.90
42913;DHT22;50720;54.324;18.558;2022-11-04T14:57:28;9.60;99.90
42913;DHT22;50720;54.324;18.558;2022-11-04T15:00:05;9.50;99.90
42913;DHT22;50720;54.324;18.558;2022-11-04T15:02:47;9.50;99.90
42913;DHT22;50720;54.324;18.558;2022-11-04T15:05:27;9.50;99.90
42913;DHT22;50720;54.324;18.558;2022-11-04T15:08:00;9.40;99.90
42913;DHT22;50720;54.324;18.558;2022-11-04T15:10:30;9.40;99.90
42913;DHT22;50720;54.324;18.558;2022-11-04T15:13:01;9.40;99.90
42913;DHT22;50720;54.324;18.558;2022-11-04T15:15:39;9.40;99.90
42913;DHT22;50720;54.324;18.558;2022-11-04T15:18:14;9.40;99.90
42913;DHT22;50720;54.324;18.558;2022-11-04T15:20:47;9.40;99.90
42913;DHT22;50720;54.324;18.558;2022-11-04T15:23:25;9.30;99.90
42913;DHT22;50720;54.324;18.558;2022-11-04T15:25:56;9.30;99.90
42913;DHT22;50720;54.324;18.558;2022-11-04T15:28:27;9.30;99.90
42913;DHT22;50720;54.324;18.558;2022-11-04T15:31:03;9.30;99.90
42913;DHT22;50720;54.324;18.558;2022-11-04T15:33:38;9.20;99.90
42913;DHT22;50720;54.324;18.558;2022-11-04T15:36:12;9.20;99.90
42913;DHT22;50720;54.324;18.558;2022-11-04T15:38:46;9.20;99.90
42913;DHT22;50720;54.324;18.558;2022-11-04T15:41:19;9.20;99.90
42913;DHT22;50720;54.324;18.558;2022-11-04T15:44:15;9.10;99.90
42913;DHT22;50720;54.324;18.558;2022-11-04T15:46:49;9.10;99.90
42913;DHT22;50720;54.324;18.558;2022-11-04T15:49:22;9.10;99.90
42913;DHT22;50720;54.324;18.558;2022-11-04T15:51:54;9.10;99.90
42913;DHT22;50720;54.324;18.558;2022-11-04T15:54:28;9.10;99.90
42913;DHT22;50720;54.324;18.558;2022-11-04T15:57:02;9.10;99.90
42913;DHT22;50720;54.324;18.558;2022-11-04T15:59:35;9.10;99.90
42913;DHT22;50720;54.324;18.558;2022-11-04T16:02:20;9.00;99.90
42913;DHT22;50720;54.324;18.558;2022-11-04T16:05:06;9.00;99.90
42913;DHT22;50720;54.324;18.558;2022-11-04T16:07:36;9.10;99.90
42913;DHT22;50720;54.324;18.558;2022-11-04T16:10:25;9.00;99.90
42913;DHT22;50720;54.324;18.558;2022-11-04T16:12:58;9.10;99.90
42913;DHT22;50720;54.324;18.558;2022-11-04T16:15:33;9.10;99.90
42913;DHT22;50720;54.324;18.558;2022-11-04T16:18:06;9.10;99.90